Time;durP1;ratioP1;P1;durP2;ratioP2;P2;SDS_P1;SDS_P2;PMS_P1;PMS_P2;Temp;Humidity;BMP_temperature;BMP_pressure;BME280_temperature;BME280_humidity;BME280_pressure;Samples;Min_cycle;Max_cycle;Signal;HPM_P1;HPM_P2
2021/12/21 00:00:16;;;;;;;10.03;6.60;;;;;;;1.85;85.12;100920.31;5051241;28;20401;-76
2021/12/21 00:02:45;;;;;;;11.10;6.63;;;;;;;1.83;84.32;100916.66;5051351;28;20179;-76
2021/12/21 00:05:17;;;;;;;11.07;6.90;;;;;;;1.92;83.99;100929.56;5051313;28;20175;-75
2021/12/21 00:07:44;;;;;;;8.53;6.03;;;;;;;1.84;84.57;100929.50;5050151;28;20738;-75
2021/12/21 00:10:10;;;;;;;10.57;7.10;;;;;;;1.81;84.78;100944.28;5051011;28;20211;-75
2021/12/21 00:12:38;;;;;;;9.83;6.53;;;;;;;1.76;84.92;100924.16;5051542;28;20195;-75
2021/12/21 00:15:15;;;;;;;12.10;6.60;;;;;;;1.71;84.27;100910.03;5051213;28;20254;-74
2021/12/21 00:17:54;;;;;;;11.60;6.30;;;;;;;1.84;84.49;100943.78;5051504;28;20170;-74
2021/12/21 00:25:11;;;;;;;9.43;6.90;;;;;;;1.85;84.27;100961.63;5051009;28;20209;-76
2021/12/21 00:27:37;;;;;;;10.13;6.80;;;;;;;1.81;84.11;100945.91;5051092;28;20666;-75
2021/12/21 00:30:03;;;;;;;15.73;6.87;;;;;;;1.88;83.55;100938.38;5051257;28;20184;-75
2021/12/21 00:32:29;;;;;;;11.17;6.57;;;;;;;1.96;83.45;100960.50;5049657;28;20179;-74
2021/12/21 00:34:54;;;;;;;12.90;6.73;;;;;;;1.99;83.34;100959.97;5051367;28;20722;-75
2021/12/21 00:37:22;;;;;;;15.10;7.80;;;;;;;2.01;83.07;100958.56;5052698;28;20175;-75
2021/12/21 00:39:47;;;;;;;13.57;7.10;;;;;;;1.58;82.03;100873.06;5054624;28;20332;-75
2021/12/21 00:42:13;;;;;;;13.67;6.70;;;;;;;1.91;81.98;100940.41;5054969;28;20254;-75
2021/12/21 00:44:39;;;;;;;10.17;6.47;;;;;;;1.84;81.91;100941.25;5054483;28;20697;-76
2021/12/21 00:47:04;;;;;;;10.47;6.80;;;;;;;1.92;81.68;100955.75;5054824;28;20180;-74
2021/12/21 00:49:30;;;;;;;13.83;6.93;;;;;;;1.75;82.35;100952.69;5054736;28;20254;-74
2021/12/21 00:51:55;;;;;;;12.07;6.90;;;;;;;1.75;82.09;100955.22;5055019;28;20172;-75
2021/12/21 00:54:21;;;;;;;11.43;7.13;;;;;;;1.86;82.07;100972.66;5054874;28;20191;-74
2021/12/21 00:56:46;;;;;;;11.17;6.90;;;;;;;1.64;82.37;100953.78;5054565;28;20604;-75
2021/12/21 00:59:12;;;;;;;11.90;7.50;;;;;;;1.78;82.54;100965.72;5054799;28;20167;-75
2021/12/21 01:01:41;;;;;;;11.93;7.07;;;;;;;1.74;81.94;100971.06;5054422;28;20642;-74
2021/12/21 01:04:12;;;;;;;11.47;7.13;;;;;;;1.73;82.45;100969.25;5054686;28;20168;-75
2021/12/21 01:06:42;;;;;;;12.50;7.53;;;;;;;1.52;82.62;100937.94;5054696;28;20167;-75
2021/12/21 01:09:16;;;;;;;14.27;8.17;;;;;;;1.64;82.13;100956.31;5054146;28;20616;-75
2021/12/21 01:11:50;;;;;;;11.20;7.00;;;;;;;1.81;81.86;100976.22;5054512;28;20748;-75
2021/12/21 01:14:53;;;;;;;12.00;7.50;;;;;;;1.69;81.96;100972.09;5054133;28;20213;-75
2021/12/21 01:20:27;;;;;;;14.00;7.97;;;;;;;1.46;82.41;100937.16;5054444;28;20694;-74
2021/12/21 01:22:44;;;;;;;13.73;7.97;;;;;;;1.50;83.00;100941.00;5050810;28;20244;-75
2021/12/21 01:25:50;;;;;;;15.97;8.73;;;;;;;1.65;82.47;100972.38;5054149;28;20174;-75
2021/12/21 01:35:34;;;;;;;18.67;9.00;;;;;;;1.59;82.88;100965.84;5053589;28;20205;-75
2021/12/21 01:51:23;;;;;;;17.83;8.87;;;;;;;1.49;82.68;100944.22;5053828;28;20175;-76
2021/12/21 01:53:49;;;;;;;20.23;8.83;;;;;;;1.44;82.51;100930.09;5053600;28;20174;-76
2021/12/21 01:56:16;;;;;;;15.30;8.77;;;;;;;1.71;82.18;100963.97;5053710;28;20230;-76
2021/12/21 01:58:42;;;;;;;16.20;7.97;;;;;;;1.65;82.31;100968.22;5053600;28;20202;-74
2021/12/21 02:01:11;;;;;;;13.90;7.27;;;;;;;1.59;82.60;100960.78;5053490;28;20785;-74
2021/12/21 02:03:37;;;;;;;13.27;8.43;;;;;;;1.60;83.02;100971.81;5051902;28;20182;-74
2021/12/21 02:06:02;;;;;;;11.43;7.53;;;;;;;1.08;82.79;100880.03;5053621;28;20229;-75
2021/12/21 02:08:28;;;;;;;14.97;8.47;;;;;;;1.56;82.70;100970.50;5053559;28;20187;-74
2021/12/21 02:10:54;;;;;;;22.53;9.93;;;;;;;1.26;83.53;100934.56;5052952;28;20729;-75
2021/12/21 02:13:19;;;;;;;16.13;9.47;;;;;;;1.24;83.98;100930.00;5053148;28;20172;-75
2021/12/21 02:15:45;;;;;;;15.33;8.40;;;;;;;1.40;84.26;100966.66;5053185;28;20203;-75
2021/12/21 02:20:55;;;;;;;16.43;8.30;;;;;;;1.42;84.29;100967.75;5053055;28;20170;-75
2021/12/21 02:23:28;;;;;;;13.73;8.10;;;;;;;1.46;84.07;100969.06;5053003;28;20164;-74
2021/12/21 02:31:06;;;;;;;11.83;7.70;;;;;;;1.44;84.66;100976.47;5052947;28;20174;-75
2021/12/21 02:33:32;;;;;;;17.07;7.63;;;;;;;1.09;84.16;100911.22;5052670;28;20176;-76
2021/12/21 02:35:59;;;;;;;12.00;7.50;;;;;;;1.40;83.68;100948.97;5052799;28;20203;-74
2021/12/21 02:38:25;;;;;;;11.60;6.53;;;;;;;1.53;83.93;100980.19;5052660;28;20183;-76
2021/12/21 02:40:51;;;;;;;11.83;8.07;;;;;;;1.50;83.70;100986.47;5052454;28;20180;-75
2021/12/21 02:43:17;;;;;;;10.33;7.10;;;;;;;1.49;83.74;100974.53;5052592;28;20199;-75
2021/12/21 02:45:43;;;;;;;10.83;6.70;;;;;;;1.43;84.50;100974.63;5052639;28;20190;-74
2021/12/21 02:48:09;;;;;;;9.30;6.80;;;;;;;1.37;83.99;100966.25;5051250;28;20661;-75
2021/12/21 02:50:36;;;;;;;11.77;7.07;;;;;;;1.48;84.31;100982.81;5052233;28;20179;-74
2021/12/21 02:53:03;;;;;;;12.60;7.20;;;;;;;1.52;84.08;100979.97;5052322;28;20175;-74
2021/12/21 02:55:29;;;;;;;11.77;7.20;;;;;;;1.53;83.55;100981.81;5052232;28;20702;-74
2021/12/21 02:57:57;;;;;;;10.90;7.03;;;;;;;1.46;84.08;100976.66;5052381;28;20171;-74
2021/12/21 03:00:26;;;;;;;12.53;7.17;;;;;;;1.54;83.82;100994.63;5050080;28;20556;-75
2021/12/21 03:02:52;;;;;;;12.40;7.60;;;;;;;1.55;83.31;100983.81;5052031;28;20202;-75
2021/12/21 03:05:18;;;;;;;11.63;7.23;;;;;;;1.50;83.25;100982.31;5051895;28;20679;-74
2021/12/21 03:11:17;;;;;;;13.73;7.30;;;;;;;1.56;83.65;101008.38;5049297;28;20875;-75
2021/12/21 03:16:18;;;;;;;10.33;7.60;;;;;;;1.57;84.27;101014.34;5051475;28;20270;-74
2021/12/21 03:18:44;;;;;;;16.47;8.87;;;;;;;1.61;83.74;101011.50;5052334;28;20369;-75
2021/12/21 03:21:10;;;;;;;14.40;8.50;;;;;;;1.49;83.67;100994.72;5052066;28;20786;-75
2021/12/21 03:23:36;;;;;;;15.93;8.07;;;;;;;1.55;83.55;100987.94;5051842;28;20179;-75
2021/12/21 03:26:01;;;;;;;14.00;8.27;;;;;;;1.33;84.88;100975.03;5051923;28;20183;-74
2021/12/21 03:28:27;;;;;;;14.03;7.97;;;;;;;1.38;84.86;100985.75;5051932;28;20171;-74
2021/12/21 03:30:53;;;;;;;17.40;8.47;;;;;;;1.58;84.26;101012.00;5051860;28;20179;-75
2021/12/21 03:33:18;;;;;;;12.47;8.07;;;;;;;1.66;84.73;101014.63;5051710;28;20328;-75
2021/12/21 03:35:44;;;;;;;17.50;8.07;;;;;;;1.69;83.31;101008.38;5051695;28;20206;-74
2021/12/21 03:38:09;;;;;;;13.77;8.10;;;;;;;1.52;84.37;100977.44;5051600;28;20247;-75
2021/12/21 03:40:35;;;;;;;14.60;8.07;;;;;;;1.72;84.02;100987.66;5051684;28;20171;-74
2021/12/21 03:43:01;;;;;;;16.53;8.40;;;;;;;1.78;83.22;101006.13;5051165;28;20669;-75
2021/12/21 03:45:32;;;;;;;13.50;7.90;;;;;;;1.57;83.39;100971.41;5051706;28;20194;-74
2021/12/21 03:47:57;;;;;;;11.90;7.93;;;;;;;1.81;83.27;101001.47;5051654;28;20168;-75
2021/12/21 03:50:23;;;;;;;11.17;7.67;;;;;;;1.85;82.63;101027.34;5051487;28;20175;-74
2021/12/21 03:52:49;;;;;;;10.20;6.53;;;;;;;1.74;83.60;101026.63;5051176;28;20529;-75
2021/12/21 03:55:14;;;;;;;9.37;6.60;;;;;;;1.83;83.53;101025.31;5051282;28;20199;-74
2021/12/21 03:57:40;;;;;;;11.10;7.23;;;;;;;1.86;82.92;101045.94;5051444;28;20612;-74
2021/12/21 04:00:09;;;;;;;9.50;6.67;;;;;;;1.66;83.21;101025.66;5051547;28;20167;-74
2021/12/21 04:02:34;;;;;;;12.77;7.50;;;;;;;1.73;83.21;101039.97;5051648;28;20324;-75
2021/12/21 04:05:00;;;;;;;12.30;6.57;;;;;;;1.43;83.66;101009.06;5051689;28;20634;-75
2021/12/21 04:07:27;;;;;;;10.17;6.70;;;;;;;1.68;83.65;101049.47;5051485;28;20258;-74
2021/12/21 04:09:53;;;;;;;12.03;7.70;;;;;;;1.64;84.13;101038.78;5051003;28;20235;-76
2021/12/21 04:12:18;;;;;;;11.53;7.53;;;;;;;1.55;83.58;101046.03;5050994;28;20262;-75
2021/12/21 04:14:44;;;;;;;10.87;7.03;;;;;;;1.14;84.08;100979.28;5050945;28;20721;-76
2021/12/21 04:17:17;;;;;;;13.27;7.47;;;;;;;1.25;84.41;101017.66;5051265;28;20198;-76
2021/12/21 04:19:43;;;;;;;11.97;7.77;;;;;;;1.43;84.29;101059.56;5049944;28;20515;-75
2021/12/21 04:22:09;;;;;;;20.60;10.00;;;;;;;1.46;84.64;101055.81;5051479;28;20595;-76
2021/12/21 04:24:34;;;;;;;13.53;8.73;;;;;;;1.41;84.77;101066.97;5051125;28;20710;-74
2021/12/21 04:26:59;;;;;;;12.53;8.03;;;;;;;1.23;85.16;101052.78;5051008;28;20569;-76
2021/12/21 04:29:25;;;;;;;16.17;7.87;;;;;;;1.21;85.51;101055.81;5050752;28;20720;-76
2021/12/21 04:31:50;;;;;;;16.37;9.27;;;;;;;1.20;85.51;101061.56;5051014;28;20270;-74
2021/12/21 04:34:16;;;;;;;11.90;8.03;;;;;;;1.44;84.82;101081.63;5050715;28;20550;-77
2021/12/21 04:36:44;;;;;;;15.27;8.53;;;;;;;1.18;85.16;101042.78;5051043;28;20183;-76
2021/12/21 04:39:19;;;;;;;14.30;9.20;;;;;;;1.31;85.43;101071.50;5051018;28;20186;-75
2021/12/21 04:41:45;;;;;;;11.63;7.63;;;;;;;1.36;85.41;101091.59;5050722;28;20250;-75
2021/12/21 04:44:11;;;;;;;14.00;8.60;;;;;;;1.42;85.53;101090.59;5050869;28;20211;-77
2021/12/21 04:46:36;;;;;;;15.07;8.00;;;;;;;1.42;84.43;101088.97;5050488;28;20237;-75
2021/12/21 04:49:02;;;;;;;15.13;8.37;;;;;;;1.25;84.79;101060.59;5050810;28;20215;-75
2021/12/21 04:51:28;;;;;;;10.53;7.07;;;;;;;1.32;84.21;101081.78;5050472;28;20190;-76
2021/12/21 04:53:54;;;;;;;9.37;6.43;;;;;;;1.25;84.82;101075.72;5050489;28;20179;-75
2021/12/21 04:56:19;;;;;;;11.63;7.33;;;;;;;1.32;85.06;101106.13;5050593;28;20229;-75
2021/12/21 04:58:45;;;;;;;14.33;9.10;;;;;;;1.28;85.30;101098.84;5050463;28;20210;-74
2021/12/21 05:01:11;;;;;;;12.90;7.73;;;;;;;1.24;85.13;101091.56;5049345;28;20183;-77
2021/12/21 05:03:36;;;;;;;16.47;9.67;;;;;;;1.33;85.71;101118.94;5050815;28;20187;-74
2021/12/21 05:06:02;;;;;;;13.33;8.10;;;;;;;0.96;85.63;101047.47;5050775;28;20259;-78
2021/12/21 05:08:33;;;;;;;10.53;7.20;;;;;;;1.28;85.08;101119.06;5050949;28;20271;-76
2021/12/21 05:11:03;;;;;;;11.87;7.70;;;;;;;1.28;85.58;101129.16;5049087;28;20227;-75
2021/12/21 05:13:30;;;;;;;11.43;7.93;;;;;;;1.29;85.89;101141.06;5050733;28;20258;-77
2021/12/21 05:15:56;;;;;;;11.73;7.10;;;;;;;1.26;85.33;101133.06;5049858;28;20858;-76
2021/12/21 05:18:23;;;;;;;11.13;7.20;;;;;;;1.35;84.79;101131.78;5050587;28;20172;-77
2021/12/21 05:20:49;;;;;;;12.87;7.03;;;;;;;1.28;84.45;101114.00;5050474;28;20179;-76
2021/12/21 05:23:14;;;;;;;14.73;9.53;;;;;;;1.37;84.70;101127.84;5050266;28;20192;-76
2021/12/21 05:25:41;;;;;;;14.83;7.40;;;;;;;1.31;85.03;101134.63;5054126;28;20187;-76
2021/12/21 05:28:08;;;;;;;11.07;7.87;;;;;;;1.27;84.95;101137.41;5053917;28;20611;-77
2021/12/21 05:30:35;;;;;;;13.33;8.13;;;;;;;1.11;84.71;101119.28;5053582;28;20186;-77
2021/12/21 05:33:02;;;;;;;11.57;7.10;;;;;;;1.23;85.06;101146.19;5053742;28;20172;-78
2021/12/21 05:35:27;;;;;;;13.87;7.47;;;;;;;1.05;84.57;101119.38;5053646;28;20203;-77
2021/12/21 05:37:58;;;;;;;12.40;7.57;;;;;;;1.44;85.07;101159.91;5053873;28;20237;-76
2021/12/21 05:40:32;;;;;;;12.97;8.60;;;;;;;1.36;84.42;101131.06;5053287;28;20167;-77
2021/12/21 05:42:57;;;;;;;16.17;8.63;;;;;;;1.32;83.95;101137.34;5053764;28;20261;-77
2021/12/21 05:45:23;;;;;;;15.40;8.77;;;;;;;1.15;84.03;101103.84;5053801;28;20175;-77
2021/12/21 05:47:48;;;;;;;12.60;8.50;;;;;;;1.48;83.12;101165.53;5053658;28;20191;-77
2021/12/21 05:50:16;;;;;;;14.50;9.20;;;;;;;1.26;82.88;101128.94;5052301;28;20212;-76
2021/12/21 05:52:43;;;;;;;13.67;8.77;;;;;;;1.60;83.77;101171.34;5051525;28;20215;-77
2021/12/21 05:55:09;;;;;;;15.80;9.10;;;;;;;1.66;82.92;101182.25;5050914;28;20210;-76
2021/12/21 05:57:35;;;;;;;13.63;8.23;;;;;;;1.71;82.60;101180.34;5051652;28;20187;-78
2021/12/21 06:00:01;;;;;;;15.00;7.93;;;;;;;1.79;86.86;101187.34;5050524;28;20643;-81
2021/12/21 06:02:26;;;;;;;13.17;8.93;;;;;;;1.74;85.59;101152.94;5051361;28;20651;-80
2021/12/21 06:04:52;;;;;;;11.60;8.40;;;;;;;1.52;84.21;101107.16;5051872;28;20183;-79
2021/12/21 06:07:18;;;;;;;13.73;7.97;;;;;;;2.01;82.58;101156.59;5053654;28;20713;-80
2021/12/21 06:09:46;;;;;;;13.13;7.60;;;;;;;2.27;81.05;101179.34;5053286;28;20236;-76
2021/12/21 06:12:52;;;;;;;9.33;7.47;;;;;;;2.19;80.11;101197.69;5052931;28;20172;-74
2021/12/21 06:25:56;;;;;;;15.47;9.30;;;;;;;1.94;80.47;101231.44;5052845;28;20365;-74
2021/12/21 06:28:22;;;;;;;10.37;7.70;;;;;;;1.72;80.45;101189.75;5052961;28;20186;-74
2021/12/21 06:30:49;;;;;;;14.83;8.73;;;;;;;1.87;80.67;101237.28;5052630;28;20590;-74
2021/12/21 06:33:15;;;;;;;18.23;9.60;;;;;;;1.84;81.04;101240.31;5052229;28;20613;-75
2021/12/21 06:35:41;;;;;;;10.57;7.37;;;;;;;1.27;81.26;101155.09;5052200;28;20732;-73
2021/12/21 06:38:07;;;;;;;16.13;9.60;;;;;;;1.73;81.87;101237.03;5052344;28;20175;-75
2021/12/21 06:40:33;;;;;;;13.93;8.83;;;;;;;1.65;81.60;101214.88;5052290;28;20245;-74
2021/12/21 06:43:02;;;;;;;15.70;9.33;;;;;;;1.98;81.95;101253.88;5052318;28;20703;-74
2021/12/21 06:45:46;;;;;;;18.47;8.57;;;;;;;2.01;81.07;101247.59;5052396;28;20167;-76
2021/12/21 06:53:39;;;;;;;21.13;12.20;;;;;;;1.98;80.60;101219.38;5052326;28;20163;-74
2021/12/21 06:56:06;;;;;;;19.83;12.87;;;;;;;2.19;80.47;101250.78;5052082;28;20207;-75
2021/12/21 06:58:32;;;;;;;17.27;10.07;;;;;;;2.07;80.14;101245.00;5052125;28;20176;-75
2021/12/21 07:00:58;;;;;;;16.70;9.17;;;;;;;2.17;80.37;101259.75;5052048;28;20186;-73
2021/12/21 07:03:24;;;;;;;18.73;9.53;;;;;;;2.04;80.08;101230.31;5052048;28;20666;-74
2021/12/21 07:05:52;;;;;;;14.07;9.70;;;;;;;2.08;80.22;101230.00;5052229;28;20171;-74
2021/12/21 07:08:23;;;;;;;16.80;8.83;;;;;;;2.23;80.30;101263.09;5051931;28;20183;-75
2021/12/21 07:11:09;;;;;;;14.63;8.37;;;;;;;2.27;79.90;101262.78;5051756;28;20600;-74
2021/12/21 07:19:04;;;;;;;11.27;7.67;;;;;;;2.00;80.17;101263.50;5051994;28;20300;-74
2021/12/21 07:21:29;;;;;;;11.87;7.63;;;;;;;1.94;81.10;101269.34;5051955;28;20639;-75
2021/12/21 07:23:55;;;;;;;15.60;8.33;;;;;;;1.79;81.64;101245.44;5051949;28;20642;-74
2021/12/21 07:26:20;;;;;;;12.33;7.73;;;;;;;2.08;80.93;101282.19;5052011;28;20180;-75
2021/12/21 07:28:46;;;;;;;13.80;8.70;;;;;;;1.88;81.61;101256.78;5050478;28;20175;-74
2021/12/21 07:31:11;;;;;;;17.17;8.40;;;;;;;2.11;80.95;101291.81;5050315;28;20164;-75
2021/12/21 07:33:37;;;;;;;13.93;9.43;;;;;;;2.05;81.26;101275.09;5051362;28;20175;-75
2021/12/21 07:36:03;;;;;;;14.60;8.43;;;;;;;2.12;81.11;101284.44;5051477;28;20226;-75
2021/12/21 07:38:30;;;;;;;13.20;8.77;;;;;;;2.12;79.94;101284.44;5051209;28;20206;-74
2021/12/21 07:41:02;;;;;;;15.70;9.80;;;;;;;2.18;79.89;101290.31;5051307;28;20656;-74
2021/12/21 07:43:28;;;;;;;14.30;9.43;;;;;;;2.19;79.20;101293.75;5051216;28;20709;-76
2021/12/21 07:45:54;;;;;;;17.07;11.50;;;;;;;2.08;79.74;101280.56;5051353;28;20643;-75
2021/12/21 07:48:21;;;;;;;15.47;9.50;;;;;;;2.22;79.42;101295.06;5050803;28;20213;-75
2021/12/21 07:50:47;;;;;;;15.33;9.37;;;;;;;2.21;79.01;101300.84;5051200;28;20222;-75
2021/12/21 07:53:17;;;;;;;17.20;9.50;;;;;;;2.07;79.26;101270.28;5051064;28;20187;-76
2021/12/21 07:55:43;;;;;;;23.60;11.57;;;;;;;2.24;78.74;101291.13;5050955;28;20199;-74
2021/12/21 07:58:09;;;;;;;44.20;18.87;;;;;;;2.38;78.32;101308.13;5051111;28;20204;-75
2021/12/21 08:00:36;;;;;;;17.90;9.93;;;;;;;2.31;78.31;101296.28;5051482;28;20194;-75
2021/12/21 08:03:02;;;;;;;15.13;9.10;;;;;;;2.39;78.63;101312.47;5051548;28;20283;-76
2021/12/21 08:05:32;;;;;;;17.60;9.40;;;;;;;2.30;77.99;101312.16;5051210;28;20179;-74
2021/12/21 08:08:08;;;;;;;14.53;9.03;;;;;;;2.37;78.40;101331.63;5051030;28;20171;-76
2021/12/21 08:10:51;;;;;;;14.63;8.60;;;;;;;2.31;78.07;101311.47;5050865;28;20725;-75
2021/12/21 08:13:18;;;;;;;17.00;8.30;;;;;;;2.38;78.29;101333.44;5051055;28;20640;-74
2021/12/21 08:15:44;;;;;;;20.03;9.50;;;;;;;2.40;78.42;101352.25;5051026;28;20262;-74
2021/12/21 08:18:09;;;;;;;14.67;8.77;;;;;;;2.40;78.55;101344.66;5050876;28;20179;-75
2021/12/21 08:20:36;;;;;;;15.47;8.53;;;;;;;2.26;79.09;101322.56;5051280;28;20250;-76
2021/12/21 08:23:05;;;;;;;16.60;10.00;;;;;;;2.40;78.95;101343.72;5051099;28;20171;-75
2021/12/21 08:25:31;;;;;;;12.97;8.10;;;;;;;2.47;78.99;101352.34;5050788;28;20194;-75
2021/12/21 08:27:58;;;;;;;18.10;8.17;;;;;;;2.57;78.48;101363.69;5050653;28;20175;-74
2021/12/21 08:30:24;;;;;;;13.73;8.70;;;;;;;2.74;78.39;101364.31;5050727;28;20190;-75
2021/12/21 08:32:50;;;;;;;12.77;8.53;;;;;;;2.88;77.65;101359.47;5050984;28;20175;-75
2021/12/21 08:35:16;;;;;;;13.90;9.10;;;;;;;3.13;77.53;101382.94;5050839;28;20213;-75
2021/12/21 08:37:48;;;;;;;13.83;9.30;;;;;;;3.16;76.74;101358.94;5050935;28;20643;-76
2021/12/21 08:40:14;;;;;;;16.63;7.53;;;;;;;2.92;75.11;101323.69;5051008;28;20169;-74
2021/12/21 08:42:40;;;;;;;12.60;7.30;;;;;;;3.17;74.95;101368.34;5050534;28;20578;-75
2021/12/21 08:45:06;;;;;;;17.57;9.13;;;;;;;3.21;75.25;101379.81;5050969;28;20463;-78
2021/12/21 08:47:36;;;;;;;11.87;7.93;;;;;;;3.12;75.17;101349.13;5049547;28;20176;-74
2021/12/21 08:50:03;;;;;;;14.47;8.17;;;;;;;3.48;75.59;101380.84;5051050;28;20179;-75
2021/12/21 08:52:31;;;;;;;11.47;7.40;;;;;;;3.55;74.88;101381.63;5050698;28;20244;-76
2021/12/21 08:54:56;;;;;;;16.43;8.00;;;;;;;3.52;74.76;101379.66;5050565;28;20282;-76
2021/12/21 08:57:22;;;;;;;13.27;8.20;;;;;;;3.53;74.44;101384.00;5050943;28;20203;-75
2021/12/21 08:59:48;;;;;;;15.73;8.47;;;;;;;3.09;73.93;101302.25;5053221;28;20224;-75
2021/12/21 09:02:13;;;;;;;12.07;8.13;;;;;;;3.07;72.89;101312.16;5054484;28;20168;-76
2021/12/21 09:04:40;;;;;;;18.10;9.47;;;;;;;3.67;73.43;101378.16;5054727;28;20183;-75
2021/12/21 09:07:05;;;;;;;22.00;9.37;;;;;;;3.89;73.30;101403.06;5054608;28;20171;-74
2021/12/21 09:09:31;;;;;;;11.67;8.10;;;;;;;3.95;72.32;101392.75;5054360;28;20242;-75
2021/12/21 09:11:57;;;;;;;13.93;8.40;;;;;;;3.32;72.59;101288.38;5054192;28;20183;-74
2021/12/21 09:14:22;;;;;;;18.67;8.83;;;;;;;3.78;72.89;101382.09;5054450;28;20195;-76
2021/12/21 09:16:50;;;;;;;14.53;8.10;;;;;;;3.64;71.40;101347.34;5054400;28;20211;-76
2021/12/21 09:19:16;;;;;;;19.03;8.43;;;;;;;3.73;71.92;101355.22;5054072;28;20642;-75
2021/12/21 09:21:43;;;;;;;19.10;8.67;;;;;;;3.45;71.84;101349.13;5054423;28;20175;-75
2021/12/21 09:24:09;;;;;;;12.57;7.60;;;;;;;3.56;72.51;101381.84;5054231;28;20254;-75
2021/12/21 09:26:35;;;;;;;11.80;7.83;;;;;;;3.69;72.65;101387.78;5054445;28;20222;-74
2021/12/21 09:29:00;;;;;;;14.20;8.03;;;;;;;3.77;72.14;101382.78;5054524;28;20171;-75
2021/12/21 09:31:26;;;;;;;12.40;7.10;;;;;;;3.94;71.00;101389.31;5054406;28;20183;-75
2021/12/21 09:33:52;;;;;;;17.70;7.93;;;;;;;3.98;71.02;101392.25;5054248;28;20179;-75
2021/12/21 09:36:18;;;;;;;10.07;7.50;;;;;;;4.00;69.79;101388.28;5054080;28;20679;-76
2021/12/21 09:38:44;;;;;;;14.37;8.30;;;;;;;4.01;69.64;101380.88;5054085;28;20258;-74
2021/12/21 09:41:09;;;;;;;18.90;8.43;;;;;;;4.13;70.44;101382.44;5054099;28;20181;-75
2021/12/21 09:43:35;;;;;;;11.67;8.10;;;;;;;4.15;69.48;101368.34;5053995;28;20577;-75
2021/12/21 09:46:01;;;;;;;12.27;8.37;;;;;;;4.39;69.22;101380.69;5053483;28;20179;-74
2021/12/21 09:48:28;;;;;;;13.63;7.40;;;;;;;4.51;68.52;101377.84;5053793;28;20270;-76
2021/12/21 09:50:54;;;;;;;17.80;8.73;;;;;;;4.62;68.05;101378.50;5053382;28;20179;-75
2021/12/21 09:53:22;;;;;;;13.43;8.70;;;;;;;4.74;67.27;101380.75;5053503;28;20647;-75
2021/12/21 09:55:49;;;;;;;14.33;8.90;;;;;;;4.78;66.91;101375.34;5053299;28;20199;-75
2021/12/21 09:58:15;;;;;;;14.37;8.73;;;;;;;4.77;67.02;101366.81;5053374;28;20179;-75
2021/12/21 10:00:40;;;;;;;13.27;8.60;;;;;;;4.80;66.27;101382.44;5053587;28;20190;-76
2021/12/21 10:03:09;;;;;;;20.43;8.87;;;;;;;4.75;65.53;101383.47;5053477;28;20179;-75
2021/12/21 10:05:38;;;;;;;15.43;8.30;;;;;;;4.67;64.48;101383.22;5053365;28;20180;-74
2021/12/21 10:08:05;;;;;;;18.30;10.93;;;;;;;4.63;64.12;101387.91;5053001;28;20290;-75
2021/12/21 10:10:33;;;;;;;20.47;10.87;;;;;;;4.44;64.70;101362.59;5052414;28;20714;-75
2021/12/21 10:13:07;;;;;;;24.43;11.10;;;;;;;4.42;64.36;101374.16;5053002;28;20179;-76
2021/12/21 10:15:39;;;;;;;17.13;9.63;;;;;;;4.52;65.46;101395.84;5053151;28;20239;-76
2021/12/21 10:18:04;;;;;;;19.03;9.20;;;;;;;4.29;65.16;101362.47;5053004;28;20164;-75
2021/12/21 10:20:38;;;;;;;14.20;8.73;;;;;;;4.53;65.28;101404.34;5053244;28;20183;-75
2021/12/21 10:23:09;;;;;;;16.63;9.63;;;;;;;4.31;64.89;101368.66;5052857;28;20212;-75
2021/12/21 10:25:40;;;;;;;16.50;10.10;;;;;;;4.53;65.15;101405.25;5052973;28;20237;-75
2021/12/21 10:28:05;;;;;;;18.13;7.50;;;;;;;4.45;64.67;101402.47;5052812;28;20662;-74
2021/12/21 10:30:31;;;;;;;10.93;6.80;;;;;;;4.13;65.47;101379.91;5053022;28;20180;-75
2021/12/21 10:32:56;;;;;;;12.03;6.63;;;;;;;4.22;65.13;101413.13;5051466;28;20175;-76
2021/12/21 10:35:31;;;;;;;11.07;6.50;;;;;;;4.06;64.83;101414.44;5052712;28;20203;-75
2021/12/21 10:37:56;;;;;;;13.83;5.40;;;;;;;3.88;64.99;101408.81;5052827;28;20167;-74
2021/12/21 10:40:26;;;;;;;8.63;5.60;;;;;;;3.91;64.32;101420.97;5052770;28;20206;-74
2021/12/21 10:42:57;;;;;;;10.80;6.27;;;;;;;3.81;65.54;101420.53;5052581;28;20204;-75
2021/12/21 10:45:27;;;;;;;8.60;5.60;;;;;;;3.71;65.76;101423.50;5052369;28;20176;-74
2021/12/21 10:47:52;;;;;;;10.07;5.67;;;;;;;3.56;65.82;101413.91;5052429;28;20167;-73
2021/12/21 10:50:18;;;;;;;10.77;6.00;;;;;;;3.45;66.18;101410.84;5052494;28;20175;-74
2021/12/21 10:52:57;;;;;;;10.93;6.50;;;;;;;3.52;66.18;101442.06;5052400;28;20180;-76
2021/12/21 10:55:33;;;;;;;22.50;10.93;;;;;;;3.45;66.61;101440.34;5052460;28;20211;-74
2021/12/21 10:58:01;;;;;;;25.77;10.40;;;;;;;3.14;67.06;101400.84;5052125;28;20174;-75
2021/12/21 11:00:27;;;;;;;35.70;10.67;;;;;;;3.26;66.97;101418.38;5052438;28;20171;-74
2021/12/21 11:02:55;;;;;;;19.90;10.27;;;;;;;3.29;67.12;101446.66;5052115;28;20186;-74
2021/12/21 11:05:21;;;;;;;25.73;10.03;;;;;;;3.30;67.90;101441.78;5052087;28;20183;-73
2021/12/21 11:08:03;;;;;;;25.37;9.50;;;;;;;3.19;68.21;101427.72;5052218;28;20178;-76
2021/12/21 11:10:34;;;;;;;24.07;9.93;;;;;;;3.27;68.45;101449.00;5051838;28;20306;-75
2021/12/21 11:13:03;;;;;;;31.10;12.27;;;;;;;3.08;68.17;101410.19;5052206;28;20205;-73
2021/12/21 11:15:32;;;;;;;17.23;9.30;;;;;;;3.18;67.87;101427.53;5052081;28;20199;-74
2021/12/21 11:18:03;;;;;;;23.80;9.57;;;;;;;3.31;67.60;101445.25;5052109;28;20203;-74
2021/12/21 11:20:29;;;;;;;15.50;8.53;;;;;;;3.20;67.86;101433.69;5051773;28;20170;-74
2021/12/21 11:22:55;;;;;;;10.33;6.40;;;;;;;3.26;68.31;101451.31;5051090;28;20272;-75
2021/12/21 11:25:22;;;;;;;8.70;5.90;;;;;;;3.25;67.79;101445.34;5052001;28;20533;-75
2021/12/21 11:27:49;;;;;;;16.77;6.50;;;;;;;3.18;68.33;101443.63;5051943;28;20183;-75
2021/12/21 11:30:22;;;;;;;10.47;7.20;;;;;;;3.17;68.16;101451.91;5050332;28;20207;-76
2021/12/21 11:32:50;;;;;;;8.97;6.73;;;;;;;3.20;67.93;101454.84;5051610;28;20175;-74
2021/12/21 11:37:52;;;;;;;19.13;7.50;;;;;;;3.29;69.06;101469.44;5051564;28;20179;-76
2021/12/21 11:40:21;;;;;;;14.87;10.57;;;;;;;3.13;68.40;101414.25;5051451;28;20163;-75
2021/12/21 11:42:54;;;;;;;18.70;9.57;;;;;;;3.43;67.93;101457.00;5051663;28;20202;-75
2021/12/21 11:45:32;;;;;;;15.10;8.40;;;;;;;3.44;67.46;101462.25;5051349;28;20167;-74
2021/12/21 11:48:03;;;;;;;18.63;9.90;;;;;;;3.35;66.95;101438.22;5051518;28;20262;-75
2021/12/21 11:50:29;;;;;;;21.37;9.03;;;;;;;3.43;66.72;101457.00;5051432;28;20186;-74
2021/12/21 11:53:03;;;;;;;21.37;8.47;;;;;;;3.42;66.43;101453.50;5051043;28;20270;-73
2021/12/21 11:55:30;;;;;;;28.20;9.30;;;;;;;3.49;66.24;101467.94;5049764;28;20226;-75
2021/12/21 11:57:59;;;;;;;27.00;10.70;;;;;;;3.64;66.30;101458.88;5051080;28;20233;-74
2021/12/21 12:00:26;;;;;;;27.97;12.13;;;;;;;3.90;66.12;101453.03;5051284;28;20171;-74
2021/12/21 12:02:54;;;;;;;14.60;7.83;;;;;;;3.90;65.93;101417.53;5051150;28;20404;-74
2021/12/21 12:05:30;;;;;;;25.53;10.60;;;;;;;4.63;63.41;101451.38;5049970;28;20240;-75
2021/12/21 12:08:03;;;;;;;12.07;6.67;;;;;;;4.89;62.40;101452.84;5051308;28;20171;-74
2021/12/21 12:10:30;;;;;;;13.40;7.80;;;;;;;4.89;62.12;101450.31;5050893;28;20604;-74
2021/12/21 12:13:26;;;;;;;12.70;6.40;;;;;;;4.63;61.10;101410.75;5050899;28;20734;-74
2021/12/21 12:16:02;;;;;;;8.43;5.30;;;;;;;4.81;62.00;101449.34;5046984;28;20275;-75
2021/12/21 12:18:32;;;;;;;12.10;8.37;;;;;;;4.75;61.61;101449.47;5051218;28;20736;-74
2021/12/21 12:20:58;;;;;;;12.33;8.17;;;;;;;4.68;62.65;101407.91;5050803;28;20167;-74
2021/12/21 12:23:24;;;;;;;12.57;7.80;;;;;;;5.28;61.07;101434.03;5051229;28;20175;-75
2021/12/21 12:25:52;;;;;;;9.43;6.53;;;;;;;5.69;59.46;101435.69;5050789;28;20631;-76
2021/12/21 12:28:34;;;;;;;9.73;5.60;;;;;;;6.00;57.96;101445.44;5051345;28;20190;-74
2021/12/21 12:31:00;;;;;;;10.03;5.00;;;;;;;6.21;57.36;101449.69;5049441;28;20179;-75
2021/12/21 12:33:39;;;;;;;7.93;5.45;;;;;;;6.64;56.14;101460.81;5052788;28;20634;-73